createdAt,value
2017-09-09T00:00:05.563Z,25.5
2017-09-09T00:01:07.052Z,25.5
2017-09-09T00:02:08.856Z,25.5
2017-09-09T00:03:10.306Z,25.5
2017-09-09T00:04:11.745Z,25.5
2017-09-09T00:05:13.875Z,25.5
2017-09-09T00:06:16.002Z,25.6
2017-09-09T00:07:17.811Z,25.5
2017-09-09T00:08:19.938Z,25.5
2017-09-09T00:09:22.066Z,25.5
2017-09-09T00:10:24.192Z,25.5
2017-09-09T00:11:25.987Z,25.5
2017-09-09T00:12:27.444Z,25.5
2017-09-09T00:13:29.238Z,25.5
2017-09-09T00:14:30.696Z,25.5
2017-09-09T00:15:32.130Z,25.5
2017-09-09T00:16:33.923Z,25.5
2017-09-09T00:17:35.694Z,25.5
2017-09-09T00:18:36.820Z,25.5
2017-09-09T00:19:38.614Z,25.5
2017-09-09T00:20:40.408Z,25.4
2017-09-09T00:21:42.202Z,25.5
2017-09-09T00:22:43.993Z,25.5
2017-09-09T00:23:45.454Z,25.5
2017-09-09T00:24:47.258Z,25.5
2017-09-09T00:25:48.722Z,25.5
2017-09-09T00:26:50.521Z,25.5
2017-09-09T00:27:51.982Z,25.5
2017-09-09T00:28:53.441Z,25.5
2017-09-09T00:29:55.584Z,25.5
2017-09-09T00:30:57.023Z,25.4
2017-09-09T00:31:59.153Z,25.5
2017-09-09T00:33:01.285Z,25.5
2017-09-09T00:34:03.081Z,25.5
2017-09-09T00:35:04.553Z,25.4
2017-09-09T00:36:06.019Z,25.4
2017-09-09T00:37:07.793Z,25.5
2017-09-09T00:38:09.587Z,25.5
2017-09-09T00:39:11.394Z,25.5
2017-09-09T00:40:13.169Z,25.5
2017-09-09T00:41:14.627Z,25.5
2017-09-09T00:42:16.398Z,25.4
2017-09-09T00:43:17.857Z,25.5
2017-09-09T00:44:19.630Z,25.4
2017-09-09T00:45:21.422Z,25.5
2017-09-09T00:46:22.526Z,25.5
2017-09-09T00:47:23.630Z,25.5
2017-09-09T00:48:25.087Z,25.5
2017-09-09T00:49:26.859Z,25.5
2017-09-09T00:50:28.984Z,25.5
2017-09-09T00:51:31.114Z,25.4
2017-09-09T00:52:31.883Z,25.5
2017-09-09T00:53:33.676Z,25.5
2017-09-09T00:54:35.137Z,25.5
2017-09-09T00:55:36.597Z,25.5
2017-09-09T00:56:37.364Z,25.5
2017-09-09T00:57:38.822Z,25.5
2017-09-09T00:58:40.617Z,25.4
2017-09-09T00:59:42.078Z,25.3
2017-09-09T01:00:44.207Z,25.5
2017-09-09T01:01:45.646Z,25.5
2017-09-09T01:02:47.083Z,25.5
2017-09-09T01:03:48.876Z,25.4
2017-09-09T01:04:50.666Z,25.5
2017-09-09T01:05:52.103Z,25.4
2017-09-09T01:06:53.565Z,25.4
2017-09-09T01:07:55.360Z,25.5
2017-09-09T01:08:57.486Z,25.3
2017-09-09T01:09:59.278Z,25.5
2017-09-09T01:11:01.073Z,25.5
2017-09-09T01:12:03.201Z,25.4
2017-09-09T01:13:05.330Z,25.4
2017-09-09T01:14:07.461Z,25.4
2017-09-09T01:15:09.590Z,25.5
2017-09-09T01:16:11.717Z,25.4
2017-09-09T01:17:13.845Z,25.4
2017-09-09T01:18:15.637Z,25.5
2017-09-09T01:19:17.098Z,25.4
2017-09-09T01:20:18.895Z,25.5
2017-09-09T01:21:20.330Z,25.4
2017-09-09T01:22:21.434Z,25.4
2017-09-09T01:23:22.580Z,25.4
2017-09-09T01:24:24.371Z,25.4
2017-09-09T01:25:26.169Z,25.5
2017-09-09T01:26:27.963Z,25.5
2017-09-09T01:27:30.092Z,25.4
2017-09-09T01:28:31.884Z,25.4
2017-09-09T01:29:33.325Z,25.4
2017-09-09T01:30:35.125Z,25.5
2017-09-09T01:31:36.898Z,25.4
2017-09-09T01:32:38.671Z,25.4
2017-09-09T01:33:40.801Z,25.5
2017-09-09T01:34:42.621Z,25.4
2017-09-09T01:35:44.771Z,25.5
2017-09-09T01:36:46.898Z,25.4
2017-09-09T01:37:48.335Z,25.5
2017-09-09T01:38:50.111Z,25.5
2017-09-09T01:39:51.906Z,25.4
2017-09-09T01:40:53.688Z,25.4
2017-09-09T01:41:55.817Z,25.5
2017-09-09T01:42:57.278Z,25.4
2017-09-09T01:43:58.718Z,25.4
2017-09-09T01:45:00.495Z,25.4
2017-09-09T01:46:01.934Z,25.4
2017-09-09T01:47:03.726Z,25.4
2017-09-09T01:48:05.164Z,25.5
2017-09-09T01:49:06.291Z,25.4
2017-09-09T01:50:08.421Z,25.4
2017-09-09T01:51:10.193Z,25.5
2017-09-09T01:52:11.987Z,25.4
2017-09-09T01:53:14.117Z,25.4
2017-09-09T01:54:15.913Z,25.4
2017-09-09T01:55:18.041Z,25.4
2017-09-09T01:56:19.501Z,25.5
2017-09-09T01:57:21.289Z,25.4
2017-09-09T01:58:23.404Z,25.5
2017-09-09T01:59:24.849Z,25.4
2017-09-09T02:00:26.644Z,25.4
2017-09-09T02:01:28.084Z,25.4
2017-09-09T02:02:30.211Z,25.4
2017-09-09T02:03:32.339Z,25.5
2017-09-09T02:04:34.132Z,25.4
2017-09-09T02:05:36.259Z,25.4
2017-09-09T02:06:37.359Z,25.4
2017-09-09T02:07:39.158Z,25.3
2017-09-09T02:08:40.926Z,25.4
2017-09-09T02:09:42.698Z,25.4
2017-09-09T02:10:44.492Z,25.4
2017-09-09T02:11:46.286Z,25.4
2017-09-09T02:12:48.085Z,25.4
2017-09-09T02:13:49.878Z,25.4
2017-09-09T02:14:51.672Z,25.4
2017-09-09T02:15:52.795Z,25.4
2017-09-09T02:16:54.592Z,25.4
2017-09-09T02:17:56.394Z,25.4
2017-09-09T02:18:58.164Z,25.4
2017-09-09T02:20:00.304Z,25.4
2017-09-09T02:21:01.766Z,25.5
2017-09-09T02:22:03.895Z,25.4
2017-09-09T02:23:05.332Z,25.4
2017-09-09T02:24:07.131Z,25.4
2017-09-09T02:25:08.263Z,25.4
2017-09-09T02:26:09.729Z,25.4
2017-09-09T02:27:11.177Z,25.3
2017-09-09T02:28:12.970Z,25.4
2017-09-09T02:29:14.762Z,25.4
2017-09-09T02:30:16.902Z,25.4
2017-09-09T02:31:18.698Z,25.3
2017-09-09T02:32:20.823Z,25.4
2017-09-09T02:33:22.282Z,25.4
2017-09-09T02:34:24.078Z,25.4
2017-09-09T02:35:25.873Z,25.3
2017-09-09T02:36:27.664Z,25.4
2017-09-09T02:37:28.766Z,25.3
2017-09-09T02:38:30.896Z,25.3
2017-09-09T02:39:32.692Z,25.3
2017-09-09T02:40:34.125Z,25.4
2017-09-09T02:41:35.934Z,25.4
2017-09-09T02:42:37.371Z,25.4
2017-09-09T02:43:39.203Z,25.4
2017-09-09T02:44:40.964Z,25.4
2017-09-09T02:45:42.089Z,25.4
2017-09-09T02:46:43.886Z,25.3
2017-09-09T02:47:45.678Z,25.4
2017-09-09T02:48:47.809Z,25.4
2017-09-09T02:49:48.916Z,25.4
2017-09-09T02:50:50.376Z,25.4
2017-09-09T02:51:51.815Z,25.4
2017-09-09T02:52:53.622Z,25.4
2017-09-09T02:53:55.407Z,25.4
2017-09-09T02:54:57.533Z,25.4
2017-09-09T02:55:59.329Z,25.4
2017-09-09T02:57:01.120Z,25.4
2017-09-09T02:58:02.914Z,25.4
2017-09-09T02:59:04.709Z,25.4
2017-09-09T03:00:06.482Z,25.3
2017-09-09T03:01:07.921Z,25.4
2017-09-09T03:02:09.360Z,25.4
2017-09-09T03:03:10.803Z,25.4
2017-09-09T03:04:12.628Z,25.4
2017-09-09T03:05:14.065Z,25.4
2017-09-09T03:06:15.836Z,25.4
2017-09-09T03:07:17.966Z,25.4
2017-09-09T03:08:19.757Z,25.3
2017-09-09T03:09:21.551Z,25.4
2017-09-09T03:10:23.372Z,25.3
2017-09-09T03:11:25.166Z,25.3
2017-09-09T03:12:26.940Z,25.4
2017-09-09T03:13:28.734Z,25.4
2017-09-09T03:14:30.505Z,25.4
2017-09-09T03:15:31.964Z,25.4
2017-09-09T03:16:33.420Z,25.4
2017-09-09T03:17:35.546Z,25.4
2017-09-09T03:18:37.339Z,25.3
2017-09-09T03:19:38.800Z,25.3
2017-09-09T03:20:40.592Z,25.4
2017-09-09T03:21:42.363Z,25.3
2017-09-09T03:22:44.495Z,25.3
2017-09-09T03:23:46.624Z,25.3
2017-09-09T03:24:48.396Z,25.3
2017-09-09T03:25:49.500Z,25.3
2017-09-09T03:26:50.936Z,25.3
2017-09-09T03:27:53.066Z,25.4
2017-09-09T03:28:54.863Z,25.3
2017-09-09T03:29:56.657Z,25.3
2017-09-09T03:30:58.430Z,25.4
2017-09-09T03:31:59.870Z,25.4
2017-09-09T03:33:01.998Z,25.3
2017-09-09T03:34:04.140Z,25.3
2017-09-09T03:35:05.588Z,25.3
2017-09-09T03:36:07.385Z,25.4
2017-09-09T03:37:09.513Z,25.4
2017-09-09T03:38:11.664Z,25.3
2017-09-09T03:39:13.796Z,25.4
2017-09-09T03:40:15.251Z,25.3
2017-09-09T03:41:17.045Z,25.3
2017-09-09T03:42:18.480Z,25.4
2017-09-09T03:43:19.943Z,25.3
2017-09-09T03:44:21.735Z,25.3
2017-09-09T03:45:23.198Z,25.4
2017-09-09T03:46:25.362Z,25.3
2017-09-09T03:47:27.139Z,25.4
2017-09-09T03:48:28.599Z,25.3
2017-09-09T03:49:30.037Z,25.4
2017-09-09T03:50:31.478Z,25.3
2017-09-09T03:51:33.272Z,25.4
2017-09-09T03:52:34.710Z,25.3
2017-09-09T03:53:36.838Z,25.3
2017-09-09T03:54:37.960Z,25.4
2017-09-09T03:55:39.732Z,25.3
2017-09-09T03:56:41.862Z,25.4
2017-09-09T03:57:42.986Z,25.3
2017-09-09T03:58:44.778Z,25.4
2017-09-09T03:59:46.905Z,25.3
2017-09-09T04:00:48.700Z,25.3
2017-09-09T04:01:50.137Z,25.3
2017-09-09T04:02:52.267Z,25.4
2017-09-09T04:03:53.725Z,25.4
2017-09-09T04:04:55.519Z,25.3
2017-09-09T04:05:57.293Z,25.4
2017-09-09T04:06:59.420Z,25.4
2017-09-09T04:08:00.865Z,25.4
2017-09-09T04:09:01.995Z,25.3
2017-09-09T04:10:04.123Z,25.3
2017-09-09T04:11:05.895Z,25.3
2017-09-09T04:12:07.337Z,25.3
2017-09-09T04:13:09.172Z,25.3
2017-09-09T04:14:10.966Z,25.3
2017-09-09T04:15:12.408Z,25.3
2017-09-09T04:16:13.876Z,25.4
2017-09-09T04:17:15.000Z,25.3
2017-09-09T04:18:16.793Z,25.3
2017-09-09T04:19:18.588Z,25.3
2017-09-09T04:20:20.401Z,25.3
2017-09-09T04:21:21.850Z,25.3
2017-09-09T04:22:23.642Z,25.4
2017-09-09T04:23:25.780Z,25.4
2017-09-09T04:24:27.564Z,25.3
2017-09-09T04:25:29.357Z,25.3
2017-09-09T04:26:31.486Z,25.3
2017-09-09T04:27:33.614Z,25.2
2017-09-09T04:28:35.407Z,25.4
2017-09-09T04:29:36.845Z,25.3
2017-09-09T04:30:38.308Z,25.3
2017-09-09T04:31:40.437Z,25.3
2017-09-09T04:32:42.211Z,25.3
2017-09-09T04:33:43.676Z,25.3
2017-09-09T04:34:45.470Z,25.3
2017-09-09T04:35:47.262Z,25.3
2017-09-09T04:36:49.392Z,25.3
2017-09-09T04:37:51.521Z,25.3
2017-09-09T04:38:53.647Z,25.3
2017-09-09T04:39:55.440Z,25.3
2017-09-09T04:40:57.572Z,25.3
2017-09-09T04:41:59.033Z,25.3
2017-09-09T04:43:01.164Z,25.3
2017-09-09T04:44:02.970Z,25.3
2017-09-09T04:45:04.077Z,25.3
2017-09-09T04:46:05.522Z,25.3
2017-09-09T04:47:06.981Z,25.3
2017-09-09T04:48:08.754Z,25.3
2017-09-09T04:49:10.906Z,25.3
2017-09-09T04:50:13.035Z,25.3
2017-09-09T04:51:14.497Z,25.3
2017-09-09T04:52:16.629Z,25.3
2017-09-09T04:53:18.428Z,25.4
2017-09-09T04:54:20.558Z,25.3
2017-09-09T04:55:22.353Z,25.3
2017-09-09T04:56:24.145Z,25.4
2017-09-09T04:57:25.584Z,25.3
2017-09-09T04:58:27.372Z,25.4
2017-09-09T04:59:28.813Z,25.4
2017-09-09T05:00:30.607Z,25.3
2017-09-09T05:01:32.046Z,25.3
2017-09-09T05:02:33.844Z,25.3
2017-09-09T05:03:35.641Z,25.3
2017-09-09T05:04:37.414Z,25.3
2017-09-09T05:05:39.189Z,25.3
2017-09-09T05:06:41.323Z,25.3
2017-09-09T05:07:43.093Z,25.3
2017-09-09T05:08:44.893Z,25.3
2017-09-09T05:09:46.684Z,25.4
2017-09-09T05:10:48.145Z,25.3
2017-09-09T05:11:49.939Z,25.3
2017-09-09T05:12:51.388Z,25.3
2017-09-09T05:13:53.181Z,25.3
2017-09-09T05:14:54.640Z,25.3
2017-09-09T05:15:56.079Z,25.3
2017-09-09T05:16:57.539Z,25.3
2017-09-09T05:17:58.974Z,25.3
2017-09-09T05:19:00.414Z,25.3
2017-09-09T05:20:02.207Z,25.3
2017-09-09T05:21:03.643Z,25.3
2017-09-09T05:22:05.771Z,25.3
2017-09-09T05:23:07.562Z,25.3
2017-09-09T05:24:09.693Z,25.3
2017-09-09T05:25:11.466Z,25.3
2017-09-09T05:26:13.594Z,25.3
2017-09-09T05:27:15.033Z,25.3
2017-09-09T05:28:17.166Z,25.3
2017-09-09T05:29:19.296Z,25.3
2017-09-09T05:30:20.737Z,25.4
2017-09-09T05:31:22.176Z,25.3
2017-09-09T05:32:23.971Z,25.3
2017-09-09T05:33:26.099Z,25.4
2017-09-09T05:34:27.871Z,25.3
2017-09-09T05:35:29.314Z,25.3
2017-09-09T05:36:31.440Z,25.3
2017-09-09T05:37:33.572Z,25.3
2017-09-09T05:38:35.375Z,25.3
2017-09-09T05:39:36.482Z,25.3
2017-09-09T05:40:38.277Z,25.3
2017-09-09T05:41:40.070Z,25.3
2017-09-09T05:42:41.870Z,25.3
2017-09-09T05:43:43.993Z,25.3
2017-09-09T05:44:45.768Z,25.4
2017-09-09T05:45:47.897Z,25.4
2017-09-09T05:46:50.027Z,25.3
2017-09-09T05:47:52.160Z,25.3
2017-09-09T05:48:53.936Z,25.3
2017-09-09T05:49:56.068Z,25.4
2017-09-09T05:50:58.193Z,25.4
2017-09-09T05:51:59.989Z,25.3
2017-09-09T05:53:01.423Z,25.4
2017-09-09T05:54:03.551Z,25.3
2017-09-09T05:55:05.018Z,25.4
2017-09-09T05:56:06.793Z,25.3
2017-09-09T05:57:08.589Z,25.4
2017-09-09T05:58:10.053Z,25.4
2017-09-09T05:59:11.852Z,25.4
2017-09-09T06:00:13.648Z,25.4
2017-09-09T06:01:15.774Z,25.3
2017-09-09T06:02:17.904Z,25.3
2017-09-09T06:03:19.391Z,25.4
2017-09-09T06:04:20.830Z,25.3
2017-09-09T06:05:22.977Z,25.3
2017-09-09T06:06:25.105Z,25.4
2017-09-09T06:07:26.881Z,25.3
2017-09-09T06:08:29.007Z,25.4
2017-09-09T06:09:30.807Z,25.3
2017-09-09T06:10:32.243Z,25.4
2017-09-09T06:11:34.020Z,25.4
2017-09-09T06:12:35.815Z,25.4
2017-09-09T06:13:37.257Z,25.3
2017-09-09T06:14:39.390Z,25.4
2017-09-09T06:15:41.183Z,25.4
2017-09-09T06:16:42.961Z,25.3
2017-09-09T06:17:44.399Z,25.3
2017-09-09T06:18:45.864Z,25.4
2017-09-09T06:19:47.656Z,25.4
2017-09-09T06:20:49.118Z,25.4
2017-09-09T06:21:50.919Z,25.4
2017-09-09T06:22:52.360Z,25.4
2017-09-09T06:23:53.469Z,25.4
2017-09-09T06:24:54.927Z,25.3
2017-09-09T06:25:56.718Z,25.4
2017-09-09T06:26:58.182Z,25.3
2017-09-09T06:27:59.618Z,25.3
2017-09-09T06:29:01.434Z,25.4
2017-09-09T06:30:03.572Z,25.4
2017-09-09T06:31:05.704Z,25.3
2017-09-09T06:32:07.836Z,25.3
2017-09-09T06:33:09.966Z,25.4
2017-09-09T06:34:11.759Z,25.4
2017-09-09T06:35:13.533Z,25.4
2017-09-09T06:36:14.992Z,25.3
2017-09-09T06:37:17.125Z,25.3
2017-09-09T06:38:18.922Z,25.4
2017-09-09T06:39:20.714Z,25.4
2017-09-09T06:40:22.843Z,25.4
2017-09-09T06:41:24.283Z,25.3
2017-09-09T06:42:26.077Z,25.4
2017-09-09T06:43:27.182Z,25.4
2017-09-09T06:44:29.034Z,25.3
2017-09-09T06:45:31.164Z,25.4
2017-09-09T06:46:32.961Z,25.3
2017-09-09T06:47:34.761Z,25.4
2017-09-09T06:48:36.555Z,25.3
2017-09-09T06:49:38.016Z,25.3
2017-09-09T06:50:40.147Z,25.4
2017-09-09T06:51:41.919Z,25.3
2017-09-09T06:52:43.363Z,25.3
2017-09-09T06:53:44.820Z,25.4
2017-09-09T06:54:46.277Z,25.4
2017-09-09T06:55:48.074Z,25.4
2017-09-09T06:56:49.850Z,25.3
2017-09-09T06:57:51.648Z,25.3
2017-09-09T06:58:53.441Z,25.3
2017-09-09T06:59:54.980Z,25.3
2017-09-09T07:00:57.115Z,25.3
2017-09-09T07:01:59.248Z,25.3
2017-09-09T07:03:01.395Z,25.4
2017-09-09T07:04:03.188Z,25.3
2017-09-09T07:05:04.988Z,25.3
2017-09-09T07:06:06.782Z,25.3
2017-09-09T07:07:08.910Z,25.4
2017-09-09T07:08:10.709Z,25.3
2017-09-09T07:09:11.832Z,25.4
2017-09-09T07:10:12.963Z,25.3
2017-09-09T07:11:14.737Z,25.4
2017-09-09T07:12:16.194Z,25.3
2017-09-09T07:13:17.992Z,25.4
2017-09-09T07:14:20.121Z,25.3
2017-09-09T07:15:21.893Z,25.4
2017-09-09T07:16:23.018Z,25.3
2017-09-09T07:17:25.154Z,25.3
2017-09-09T07:18:27.284Z,25.3
2017-09-09T07:19:28.725Z,25.4
2017-09-09T07:20:30.521Z,25.4
2017-09-09T07:21:31.646Z,25.4
2017-09-09T07:22:33.780Z,25.3
2017-09-09T07:23:35.912Z,25.4
2017-09-09T07:24:37.351Z,25.4
2017-09-09T07:25:39.479Z,25.4
2017-09-09T07:26:40.938Z,25.4
2017-09-09T07:27:42.712Z,25.4
2017-09-09T07:28:44.506Z,25.4
2017-09-09T07:29:46.636Z,25.4
2017-09-09T07:30:48.432Z,25.3
2017-09-09T07:31:49.558Z,25.3
2017-09-09T07:32:51.019Z,25.4
2017-09-09T07:33:52.477Z,25.4
2017-09-09T07:34:54.272Z,25.4
2017-09-09T07:35:55.730Z,25.4
2017-09-09T07:36:57.867Z,25.3
2017-09-09T07:37:59.326Z,25.4
2017-09-09T07:39:01.122Z,25.4
2017-09-09T07:40:02.582Z,25.4
2017-09-09T07:41:04.044Z,25.4
2017-09-09T07:42:05.839Z,25.4
2017-09-09T07:43:07.636Z,25.4
2017-09-09T07:44:09.766Z,25.4
2017-09-09T07:45:10.897Z,25.4
2017-09-09T07:46:13.026Z,25.5
2017-09-09T07:47:14.484Z,25.4
2017-09-09T07:48:15.591Z,25.5
2017-09-09T07:49:17.033Z,25.4
2017-09-09T07:50:18.825Z,25.4
2017-09-09T07:51:20.268Z,25.5
2017-09-09T07:52:21.709Z,25.4
2017-09-09T07:53:23.147Z,25.4
2017-09-09T07:54:24.252Z,25.4
2017-09-09T07:55:26.381Z,25.4
2017-09-09T07:56:28.513Z,25.4
2017-09-09T07:57:30.643Z,25.4
2017-09-09T07:58:32.101Z,25.4
2017-09-09T07:59:33.898Z,25.4
2017-09-09T08:00:35.695Z,25.4
2017-09-09T08:01:37.156Z,25.4
2017-09-09T08:02:38.937Z,25.4
2017-09-09T08:03:40.728Z,25.4
2017-09-09T08:04:42.504Z,25.4
2017-09-09T08:05:44.300Z,25.5
2017-09-09T08:06:46.094Z,25.5
2017-09-09T08:07:47.535Z,25.4
2017-09-09T08:08:48.641Z,25.5
2017-09-09T08:09:50.438Z,25.5
2017-09-09T08:10:52.230Z,25.4
2017-09-09T08:11:54.026Z,25.5
2017-09-09T08:12:55.137Z,25.5
2017-09-09T08:13:55.909Z,25.4
2017-09-09T08:14:57.370Z,25.5
2017-09-09T08:15:59.170Z,25.5
2017-09-09T08:17:01.297Z,25.5
2017-09-09T08:18:02.397Z,25.4
2017-09-09T08:19:03.857Z,25.4
2017-09-09T08:20:05.654Z,25.5
2017-09-09T08:21:07.113Z,25.5
2017-09-09T08:22:08.888Z,25.4
2017-09-09T08:23:10.685Z,25.5
2017-09-09T08:24:12.815Z,25.4
2017-09-09T08:25:14.589Z,25.4
2017-09-09T08:26:16.051Z,25.4
2017-09-09T08:27:17.826Z,25.5
2017-09-09T08:28:19.955Z,25.5
2017-09-09T08:29:21.754Z,25.5
2017-09-09T08:30:23.547Z,25.4
2017-09-09T08:31:24.982Z,25.5
2017-09-09T08:32:26.421Z,25.5
2017-09-09T08:33:28.219Z,25.5
2017-09-09T08:34:30.013Z,25.5
2017-09-09T08:35:30.783Z,25.5
2017-09-09T08:36:32.580Z,25.5
2017-09-09T08:37:34.474Z,25.6
2017-09-09T08:38:36.245Z,25.6
2017-09-09T08:39:38.375Z,25.5
2017-09-09T08:40:40.504Z,25.6
2017-09-09T08:41:42.636Z,25.5
2017-09-09T08:42:44.813Z,25.6
2017-09-09T08:43:46.944Z,25.7
2017-09-09T08:44:48.404Z,25.6
2017-09-09T08:45:50.536Z,25.6
2017-09-09T08:46:52.670Z,25.6
2017-09-09T08:47:54.125Z,25.6
2017-09-09T08:48:55.588Z,25.6
2017-09-09T08:49:57.383Z,25.7
2017-09-09T08:50:59.511Z,25.7
2017-09-09T08:52:00.618Z,25.7
2017-09-09T08:53:02.415Z,25.7
2017-09-09T08:54:04.217Z,25.7
2017-09-09T08:55:06.013Z,25.7
2017-09-09T08:56:08.144Z,25.7
2017-09-09T08:57:09.941Z,25.7
2017-09-09T08:58:11.742Z,25.7
2017-09-09T08:59:13.514Z,25.7
2017-09-09T09:00:15.292Z,25.7
2017-09-09T09:01:16.398Z,25.7
2017-09-09T09:02:18.534Z,25.8
2017-09-09T09:03:20.305Z,25.8
2017-09-09T09:04:22.103Z,25.7
2017-09-09T09:05:23.561Z,25.7
2017-09-09T09:06:24.999Z,25.7
2017-09-09T09:07:26.437Z,25.7
2017-09-09T09:08:27.542Z,25.7
2017-09-09T09:09:29.339Z,25.7
2017-09-09T09:10:30.806Z,25.7
2017-09-09T09:11:32.266Z,25.7
2017-09-09T09:12:34.397Z,25.7
2017-09-09T09:13:36.168Z,25.7
2017-09-09T09:14:38.300Z,25.7
2017-09-09T09:15:40.092Z,25.7
2017-09-09T09:16:41.885Z,25.7
2017-09-09T09:17:43.013Z,25.7
2017-09-09T09:18:44.810Z,25.7
2017-09-09T09:19:46.605Z,25.7
2017-09-09T09:20:48.402Z,25.7
2017-09-09T09:21:49.860Z,25.7
2017-09-09T09:22:51.655Z,25.7
2017-09-09T09:23:53.788Z,25.7
2017-09-09T09:24:55.226Z,25.7
2017-09-09T09:25:56.663Z,25.7
2017-09-09T09:26:58.126Z,25.7
2017-09-09T09:28:00.257Z,25.7
2017-09-09T09:29:01.694Z,25.6
2017-09-09T09:30:03.826Z,25.7
2017-09-09T09:31:05.620Z,25.7
2017-09-09T09:32:07.751Z,25.7
2017-09-09T09:33:09.885Z,25.6
2017-09-09T09:34:11.325Z,25.6
2017-09-09T09:35:13.126Z,25.7
2017-09-09T09:36:15.254Z,25.7
2017-09-09T09:37:17.054Z,25.7
2017-09-09T09:38:18.825Z,25.7
2017-09-09T09:39:20.288Z,25.7
2017-09-09T09:40:22.060Z,25.7
2017-09-09T09:41:24.203Z,25.7
2017-09-09T09:42:24.977Z,25.7
2017-09-09T09:43:27.113Z,25.6
2017-09-09T09:44:28.880Z,25.7
2017-09-09T09:45:30.676Z,25.8
2017-09-09T09:46:32.110Z,25.8
2017-09-09T09:47:34.249Z,25.7
2017-09-09T09:48:36.370Z,25.7
2017-09-09T09:49:37.860Z,25.8
2017-09-09T09:50:39.658Z,25.7
2017-09-09T09:51:40.763Z,25.8
2017-09-09T09:52:42.891Z,25.8
2017-09-09T09:53:44.333Z,25.8
2017-09-09T09:54:45.869Z,25.8
2017-09-09T09:55:47.662Z,25.8
2017-09-09T09:56:49.439Z,25.7
2017-09-09T09:57:51.239Z,25.7
2017-09-09T09:58:53.033Z,25.8
2017-09-09T09:59:55.169Z,25.8
2017-09-09T10:00:56.940Z,25.7
2017-09-09T10:01:58.740Z,25.8
2017-09-09T10:03:00.183Z,25.8
2017-09-09T10:04:02.335Z,25.8
2017-09-09T10:05:04.132Z,25.9
2017-09-09T10:06:06.262Z,25.9
2017-09-09T10:07:07.702Z,25.9
2017-09-09T10:08:09.501Z,25.9
2017-09-09T10:09:11.296Z,25.8
2017-09-09T10:10:13.428Z,25.9
2017-09-09T10:11:15.227Z,25.9
2017-09-09T10:12:17.003Z,25.9
2017-09-09T10:13:18.471Z,25.9
2017-09-09T10:14:19.953Z,25.8
2017-09-09T10:15:21.813Z,25.9
2017-09-09T10:16:23.276Z,25.9
2017-09-09T10:17:25.405Z,25.9
2017-09-09T10:18:26.852Z,25.9
2017-09-09T10:19:28.986Z,25.9
2017-09-09T10:20:30.851Z,25.9
2017-09-09T10:21:32.653Z,26
2017-09-09T10:22:34.785Z,26
2017-09-09T10:23:36.563Z,26
2017-09-09T10:24:38.005Z,26
2017-09-09T10:25:39.780Z,26
2017-09-09T10:26:41.558Z,26
2017-09-09T10:27:42.662Z,26.1
2017-09-09T10:28:44.793Z,26
2017-09-09T10:29:46.591Z,26
2017-09-09T10:30:48.722Z,26
2017-09-09T10:31:50.165Z,26.1
2017-09-09T10:32:51.292Z,26.1
2017-09-09T10:33:53.086Z,26
2017-09-09T10:34:55.217Z,26
2017-09-09T10:35:57.027Z,26.1
2017-09-09T10:36:59.158Z,26
2017-09-09T10:38:00.990Z,26.2
2017-09-09T10:39:02.398Z,26.1
2017-09-09T10:40:04.529Z,26.2
2017-09-09T10:41:05.651Z,26.1
2017-09-09T10:42:07.445Z,26.2
2017-09-09T10:43:09.243Z,26.1
2017-09-09T10:44:11.019Z,26.1
2017-09-09T10:45:12.480Z,26.1
2017-09-09T10:46:14.252Z,26.1
2017-09-09T10:47:16.385Z,26
2017-09-09T10:48:17.826Z,26.1
2017-09-09T10:49:19.621Z,26
2017-09-09T10:50:21.085Z,26
2017-09-09T10:51:22.546Z,26
2017-09-09T10:52:24.318Z,26
2017-09-09T10:53:26.452Z,26.1
2017-09-09T10:54:28.581Z,26
2017-09-09T10:55:30.355Z,26
2017-09-09T10:56:31.793Z,26
2017-09-09T10:57:33.925Z,26.1
2017-09-09T10:58:35.722Z,26
2017-09-09T10:59:37.522Z,26
2017-09-09T11:00:39.315Z,26
2017-09-09T11:01:41.448Z,26
2017-09-09T11:02:43.224Z,26.2
2017-09-09T11:03:45.357Z,26
2017-09-09T11:04:47.488Z,26
2017-09-09T11:05:49.282Z,26
2017-09-09T11:06:51.075Z,26
2017-09-09T11:07:53.205Z,26
2017-09-09T11:08:54.313Z,26
2017-09-09T11:09:55.756Z,26
2017-09-09T11:10:57.218Z,26.1
2017-09-09T11:11:58.728Z,26.1
2017-09-09T11:13:00.503Z,26
2017-09-09T11:14:02.300Z,26
2017-09-09T11:15:04.098Z,26.1
2017-09-09T11:16:05.565Z,26
2017-09-09T11:17:07.696Z,26
2017-09-09T11:18:09.833Z,26.1
2017-09-09T11:19:10.938Z,26
2017-09-09T11:20:12.731Z,26
2017-09-09T11:21:14.529Z,26
2017-09-09T11:22:16.071Z,26.1
2017-09-09T11:23:17.865Z,26.1
2017-09-09T11:24:19.662Z,26
2017-09-09T11:25:21.122Z,26
2017-09-09T11:26:22.582Z,26
2017-09-09T11:27:24.049Z,26
2017-09-09T11:28:25.847Z,26.1
2017-09-09T11:29:27.644Z,26
2017-09-09T11:30:29.443Z,26
2017-09-09T11:31:30.216Z,26
2017-09-09T11:32:31.339Z,26.1
2017-09-09T11:33:33.481Z,26
2017-09-09T11:34:35.275Z,26.1
2017-09-09T11:35:36.405Z,26
2017-09-09T11:36:38.535Z,26
2017-09-09T11:37:39.972Z,26
2017-09-09T11:38:42.104Z,26.1
2017-09-09T11:39:43.539Z,26
2017-09-09T11:40:45.311Z,26.1
2017-09-09T11:41:47.447Z,26.2
2017-09-09T11:42:49.227Z,26.1
2017-09-09T11:43:50.693Z,26.1
2017-09-09T11:44:52.158Z,26.2
2017-09-09T11:45:53.264Z,26.2
2017-09-09T11:46:55.396Z,26.1
2017-09-09T11:47:57.191Z,26.2
2017-09-09T11:48:58.987Z,26.2
2017-09-09T11:50:00.780Z,26.1
2017-09-09T11:51:02.578Z,26.1
2017-09-09T11:52:04.375Z,26.2
2017-09-09T11:53:05.477Z,26.2
2017-09-09T11:54:07.610Z,26.1
2017-09-09T11:55:09.073Z,26.2
2017-09-09T11:56:10.535Z,26.1
2017-09-09T11:57:11.996Z,26.1
2017-09-09T11:58:13.869Z,26.2
2017-09-09T11:59:15.670Z,26.1
2017-09-09T12:00:17.463Z,26.2
2017-09-09T12:01:19.594Z,26.2
2017-09-09T12:02:21.389Z,26.1
2017-09-09T12:03:22.870Z,26.2
2017-09-09T12:04:24.628Z,26.2
2017-09-09T12:05:26.759Z,26.1
2017-09-09T12:06:28.535Z,26.2
2017-09-09T12:07:29.646Z,26.2
2017-09-09T12:08:31.878Z,26.2
2017-09-09T12:09:33.654Z,26.1
2017-09-09T12:10:35.427Z,26.2
2017-09-09T12:11:36.870Z,26.2
2017-09-09T12:12:38.669Z,26.2
2017-09-09T12:13:40.447Z,26.1
2017-09-09T12:14:42.243Z,26.1
2017-09-09T12:15:43.706Z,26.1
2017-09-09T12:16:45.505Z,26.2
2017-09-09T12:17:46.948Z,26.1
2017-09-09T12:18:48.054Z,26.2
2017-09-09T12:19:49.849Z,26.2
2017-09-09T12:20:51.292Z,26.1
2017-09-09T12:21:53.085Z,26.2
2017-09-09T12:22:54.860Z,26.2
2017-09-09T12:23:56.658Z,26.1
2017-09-09T12:24:58.459Z,26.1
2017-09-09T12:25:59.920Z,26.1
2017-09-09T12:27:01.361Z,26.1
2017-09-09T12:28:03.144Z,26.1
2017-09-09T12:29:04.938Z,26.1
2017-09-09T12:30:06.400Z,26.1
2017-09-09T12:31:07.838Z,26.1
2017-09-09T12:32:09.633Z,26.2
2017-09-09T12:33:11.767Z,26.1
2017-09-09T12:34:13.576Z,26.2
2017-09-09T12:35:15.348Z,26.1
2017-09-09T12:36:17.146Z,26.2
2017-09-09T12:37:18.946Z,26.1
2017-09-09T12:38:20.719Z,26.2
2017-09-09T12:39:21.845Z,26.2
2017-09-09T12:40:23.643Z,26.2
2017-09-09T12:41:25.109Z,26.2
2017-09-09T12:42:26.567Z,26.2
2017-09-09T12:43:28.344Z,26.2
2017-09-09T12:44:30.475Z,26.2
2017-09-09T12:45:31.914Z,26.2
2017-09-09T12:46:33.374Z,26.2
2017-09-09T12:47:35.173Z,26.2
2017-09-09T12:48:36.949Z,26.3
2017-09-09T12:49:38.746Z,26.3
2017-09-09T12:50:39.851Z,26.2
2017-09-09T12:51:41.293Z,26.2
2017-09-09T12:52:43.427Z,26.2
2017-09-09T12:53:45.223Z,26.2
2017-09-09T12:54:47.021Z,26.2
2017-09-09T12:55:48.817Z,26.2
2017-09-09T12:56:50.951Z,26.3
2017-09-09T12:57:52.744Z,26.2
2017-09-09T12:58:54.883Z,26.2
2017-09-09T12:59:56.658Z,26.3
2017-09-09T13:00:58.438Z,26.2
2017-09-09T13:02:00.566Z,26.2
2017-09-09T13:03:02.345Z,26.2
2017-09-09T13:04:03.450Z,26.2
2017-09-09T13:05:05.244Z,26.2
2017-09-09T13:06:07.044Z,26.2
2017-09-09T13:07:08.483Z,26.2
2017-09-09T13:08:10.618Z,26.2
2017-09-09T13:09:12.749Z,26.2
2017-09-09T13:10:14.545Z,26.2
2017-09-09T13:11:15.654Z,26.2
2017-09-09T13:12:16.757Z,26.2
2017-09-09T13:13:18.554Z,26.2
2017-09-09T13:14:20.024Z,26.3
2017-09-09T13:15:21.515Z,26.2
2017-09-09T13:16:22.954Z,26.2
2017-09-09T13:17:24.755Z,26.3
2017-09-09T13:18:26.886Z,26.2
2017-09-09T13:19:28.327Z,26.2
2017-09-09T13:20:30.459Z,26.2
2017-09-09T13:21:31.906Z,26.2
2017-09-09T13:22:33.702Z,26.2
2017-09-09T13:23:35.835Z,26.2
2017-09-09T13:24:37.295Z,26.2
2017-09-09T13:25:38.761Z,26.2
2017-09-09T13:26:40.200Z,26.2
2017-09-09T13:27:41.998Z,26.2
2017-09-09T13:28:43.464Z,26.2
2017-09-09T13:29:45.592Z,26.2
2017-09-09T13:30:47.727Z,26.2
2017-09-09T13:31:49.857Z,26.2
2017-09-09T13:32:51.316Z,26.2
2017-09-09T13:33:53.114Z,26.2
2017-09-09T13:34:54.216Z,26.3
2017-09-09T13:35:56.044Z,26.2
2017-09-09T13:36:58.176Z,26.2
2017-09-09T13:37:59.960Z,26.2
2017-09-09T13:39:01.422Z,26.4
2017-09-09T13:40:03.553Z,26.3
2017-09-09T13:41:05.354Z,26.2
2017-09-09T13:42:07.486Z,26.3
2017-09-09T13:43:09.284Z,26.2
2017-09-09T13:44:10.395Z,26.2